Time,TemperatureF,DewpointF,PressureIn,WindDirection,WindDirectionDegrees,WindSpeedMPH,WindSpeedGustMPH,Humidity,HourlyPrecipIn,Conditions,Clouds,dailyrainin,SoftwareType,DateUTC
2013-01-31 00:00:00,56.4,26.9,29.41,SSW,202,4.0,17.0,32,0.01,,-RA,0.15,VWS V13.01,2013-01-31 05:00:00,
2013-01-31 00:01:00,56.3,26.8,29.41,SSW,196,3.0,17.0,32,0.01,,-RA,0.00,VWS V13.01,2013-01-31 05:01:00,
2013-01-31 00:03:00,56.2,26.8,29.40,SW,215,5.0,5.0,32,0.01,,-RA,0.00,VWS V13.01,2013-01-31 05:03:00,
2013-01-31 00:08:00,56.4,26.9,29.40,SSW,213,5.0,11.0,32,0.01,,-RA,0.00,VWS V13.01,2013-01-31 05:08:00,
2013-01-31 00:13:00,56.6,27.1,29.40,SE,144,4.0,14.0,32,0.01,,-RA,0.00,VWS V13.01,2013-01-31 05:13:00,
2013-01-31 00:18:00,56.7,27.2,29.39,SW,218,9.0,14.0,32,0.01,,-RA,0.00,VWS V13.01,2013-01-31 05:18:00,
2013-01-31 00:23:00,56.8,27.3,29.39,SSW,203,6.0,14.0,32,0.01,,-RA,0.00,VWS V13.01,2013-01-31 05:23:00,
2013-01-31 00:28:00,57.1,27.5,29.38,SW,219,7.0,14.0,32,0.01,,-RA,0.00,VWS V13.01,2013-01-31 05:28:00,
2013-01-31 00:33:00,57.3,27.7,29.38,SSW,198,9.0,13.0,32,0.01,,-RA,0.00,VWS V13.01,2013-01-31 05:33:00,
2013-01-31 00:38:00,57.4,27.8,29.37,WSW,240,10.0,17.0,32,0.01,,-RA,0.00,VWS V13.01,2013-01-31 05:38:00,
2013-01-31 00:43:00,57.4,27.8,29.36,South,171,4.0,17.0,32,0.01,,-RA,0.00,VWS V13.01,2013-01-31 05:43:00,
2013-01-31 00:48:00,57.2,27.6,29.36,SW,217,7.0,17.0,32,0.01,,OVC012,0.00,VWS V13.01,2013-01-31 05:48:00,
2013-01-31 00:53:00,57.2,27.6,29.35,SSW,211,5.0,17.0,32,0.01,,OVC012,0.00,VWS V13.01,2013-01-31 05:53:00,
2013-01-31 00:58:00,57.3,27.7,29.35,SSW,212,4.0,17.0,32,0.01,,OVC012,0.00,VWS V13.01,2013-01-31 05:58:00,
2013-01-31 01:03:00,57.4,27.8,29.34,SSW,202,9.0,12.0,32,0.00,,-RA,0.00,VWS V13.01,2013-01-31 06:03:00,
2013-01-31 01:08:00,57.6,28.0,29.34,SW,215,7.0,14.0,32,0.00,,-RA,0.00,VWS V13.01,2013-01-31 06:08:00,
2013-01-31 01:13:00,57.6,28.0,29.33,South,172,5.0,14.0,32,0.00,,-RA,0.00,VWS V13.01,2013-01-31 06:13:00,
2013-01-31 01:18:00,57.6,28.0,29.33,SSW,205,6.0,14.0,32,0.00,,-RA,0.00,VWS V13.01,2013-01-31 06:18:00,
2013-01-31 01:23:00,57.6,28.0,29.33,SW,220,5.0,17.0,32,0.00,,-RA,0.00,VWS V13.01,2013-01-31 06:23:00,
2013-01-31 01:28:00,57.7,28.1,29.32,SSE,160,3.0,18.0,32,0.00,,-RA,0.00,VWS V13.01,2013-01-31 06:28:00,
2013-01-31 01:33:00,57.8,28.2,29.32,SSW,197,8.0,10.0,32,0.00,,-RA,0.00,VWS V13.01,2013-01-31 06:33:00,
2013-01-31 01:38:00,57.8,28.2,29.32,West,273,17.0,17.0,32,0.00,,-RA,0.00,VWS V13.01,2013-01-31 06:38:00,
2013-01-31 01:44:00,57.9,28.2,29.31,SSW,193,5.0,18.0,32,0.00,,-RA,0.00,VWS V13.01,2013-01-31 06:44:00,
2013-01-31 01:49:00,58.1,28.4,29.31,SSW,209,6.0,18.0,32,0.00,,-RA,0.00,VWS V13.01,2013-01-31 06:49:00,
2013-01-31 01:54:00,58.1,28.4,29.30,SW,223,11.0,19.0,32,0.00,,-RA,0.00,VWS V13.01,2013-01-31 06:54:00,
2013-01-31 01:59:00,58.0,28.3,29.29,SSW,204,4.0,19.0,32,0.00,,-RA,0.00,VWS V13.01,2013-01-31 06:59:00,
2013-01-31 02:04:00,58.0,28.3,29.28,SSW,194,10.0,13.0,32,0.00,,-RA,0.00,VWS V13.01,2013-01-31 07:04:00,
2013-01-31 02:09:00,58.0,28.3,29.28,SSW,205,6.0,17.0,32,0.00,,-RA,0.00,VWS V13.01,2013-01-31 07:09:00,
2013-01-31 02:14:00,58.0,28.3,29.28,South,184,6.0,20.0,32,0.00,,-RA,0.00,VWS V13.01,2013-01-31 07:14:00,
2013-01-31 02:19:00,58.2,28.5,29.27,South,183,9.0,20.0,32,0.00,,-RA,0.00,VWS V13.01,2013-01-31 07:19:00,
2013-01-31 02:24:00,58.3,27.8,29.26,SSW,203,6.0,20.0,31,0.00,,-RA,0.00,VWS V13.01,2013-01-31 07:24:00,
2013-01-31 02:29:00,58.2,28.5,29.26,South,185,7.0,22.0,32,0.00,,-RA,0.00,VWS V13.01,2013-01-31 07:29:00,
2013-01-31 02:34:00,58.3,27.8,29.25,South,173,4.0,20.0,31,0.00,,-RA,0.00,VWS V13.01,2013-01-31 07:34:00,
2013-01-31 02:39:00,58.4,27.9,29.24,South,173,12.0,20.0,31,0.01,,-RA,0.01,VWS V13.01,2013-01-31 07:39:00,
2013-01-31 02:44:00,58.6,28.9,29.23,SSW,192,9.0,20.0,32,0.01,,-RA,0.01,VWS V13.01,2013-01-31 07:44:00,
2013-01-31 02:49:00,58.5,28.0,29.22,SW,225,5.0,20.0,31,0.01,,-RA,0.01,VWS V13.01,2013-01-31 07:49:00,
2013-01-31 02:54:00,58.5,28.0,29.22,South,178,4.0,20.0,31,0.01,,-RA,0.01,VWS V13.01,2013-01-31 07:54:00,
2013-01-31 02:59:00,58.5,28.0,29.21,South,188,5.0,20.0,31,0.01,,-RA,0.01,VWS V13.01,2013-01-31 07:59:00,
2013-01-31 03:04:00,58.6,28.9,29.20,SSW,202,9.0,17.0,32,0.01,,-RA,0.01,VWS V13.01,2013-01-31 08:04:00,
2013-01-31 03:09:00,58.5,28.8,29.19,SSE,154,11.0,17.0,32,0.01,,-RA,0.01,VWS V13.01,2013-01-31 08:09:00,
2013-01-31 03:14:00,58.9,29.1,29.19,South,183,5.0,22.0,32,0.01,,-RA,0.01,VWS V13.01,2013-01-31 08:14:00,
2013-01-31 03:20:00,58.8,29.0,29.18,SSW,201,8.0,22.0,32,0.02,,-RA,0.02,VWS V13.01,2013-01-31 08:20:00,
2013-01-31 03:25:00,58.7,28.9,29.16,SE,126,6.0,22.0,32,0.02,,-RA,0.02,VWS V13.01,2013-01-31 08:25:00,
2013-01-31 03:30:00,58.7,28.9,29.17,SSE,166,5.0,22.0,32,0.02,,-RA,0.02,VWS V13.01,2013-01-31 08:30:00,
2013-01-31 03:35:00,58.9,29.1,29.16,SW,220,8.0,26.0,32,0.02,,-RA,0.02,VWS V13.01,2013-01-31 08:35:00,
2013-01-31 03:40:00,59.0,29.2,29.15,SW,217,9.0,26.0,32,0.02,,-RA,0.02,VWS V13.01,2013-01-31 08:40:00,
2013-01-31 03:45:00,59.0,29.2,29.15,West,277,13.0,26.0,32,0.02,,-RA,0.02,VWS V13.01,2013-01-31 08:45:00,
2013-01-31 03:50:00,59.2,29.4,29.14,SSW,205,12.0,26.0,32,0.02,,-RA,0.02,VWS V13.01,2013-01-31 08:50:00,
2013-01-31 03:55:00,59.5,30.4,29.14,SSW,198,5.0,26.0,33,0.02,,-RA,0.02,VWS V13.01,2013-01-31 08:55:00,
2013-01-31 04:00:00,59.4,30.3,29.12,SW,215,6.0,26.0,33,0.02,,-RA,0.02,VWS V13.01,2013-01-31 09:00:00,
2013-01-31 04:05:00,59.4,30.3,29.13,SSW,208,6.0,19.0,33,0.01,,-RA,0.02,VWS V13.01,2013-01-31 09:05:00,
2013-01-31 04:10:00,59.4,30.3,29.12,SSW,192,9.0,24.0,33,0.01,,-RA,0.02,VWS V13.01,2013-01-31 09:10:00,
2013-01-31 04:15:00,59.1,30.0,29.11,SSE,158,9.0,24.0,33,0.01,,-RA,0.02,VWS V13.01,2013-01-31 09:15:00,
2013-01-31 04:20:00,59.2,30.1,29.10,SE,136,11.0,24.0,33,0.01,,-RA,0.02,VWS V13.01,2013-01-31 09:20:00,
2013-01-31 04:25:00,59.1,30.0,29.10,South,189,17.0,24.0,33,0.01,,-RA,0.02,VWS V13.01,2013-01-31 09:25:00,
2013-01-31 04:30:00,59.1,30.0,29.10,South,190,8.0,24.0,33,0.01,,-RA,0.02,VWS V13.01,2013-01-31 09:30:00,
2013-01-31 04:35:00,59.2,30.1,29.10,WSW,241,6.0,27.0,33,0.00,,-RA,0.02,VWS V13.01,2013-01-31 09:35:00,
2013-01-31 04:40:00,59.3,30.2,29.09,SSW,207,11.0,27.0,33,0.00,,-RA,0.02,VWS V13.01,2013-01-31 09:40:00,
2013-01-31 04:45:00,59.1,30.0,29.08,SSW,212,7.0,27.0,33,0.00,,-RA,0.02,VWS V13.01,2013-01-31 09:45:00,
2013-01-31 04:50:00,59.0,30.0,29.07,SSW,202,7.0,27.0,33,0.00,,-RA,0.02,VWS V13.01,2013-01-31 09:50:00,
2013-01-31 04:55:00,59.0,30.0,29.08,SSW,198,5.0,27.0,33,0.01,,-RA,0.03,VWS V13.01,2013-01-31 09:55:00,
2013-01-31 05:00:00,59.0,30.0,29.08,SW,215,6.0,27.0,33,0.01,,-RA,0.03,VWS V13.01,2013-01-31 10:00:00,
2013-01-31 05:05:00,58.6,29.6,29.08,SSW,208,10.0,15.0,33,0.02,,-RA,0.04,VWS V13.01,2013-01-31 10:05:00,
2013-01-31 05:10:00,58.2,28.5,29.06,SSW,192,9.0,15.0,32,0.02,,-RA,0.04,VWS V13.01,2013-01-31 10:10:00,
2013-01-31 05:15:00,58.0,28.3,29.06,SSW,207,7.0,15.0,32,0.03,,-RA,0.05,VWS V13.01,2013-01-31 10:15:00,
2013-01-31 05:20:00,57.8,28.2,29.06,SSW,209,6.0,15.0,32,0.04,,-RA,0.06,VWS V13.01,2013-01-31 10:20:00,
2013-01-31 05:25:00,57.6,28.0,29.05,SSE,165,4.0,15.0,32,0.07,,-RA,0.09,VWS V13.01,2013-01-31 10:25:00,
2013-01-31 05:30:00,57.6,28.0,29.04,South,180,7.0,15.0,32,0.09,,-RA,0.11,VWS V13.01,2013-01-31 10:30:00,
2013-01-31 05:35:00,57.4,27.8,29.03,South,170,6.0,17.0,32,0.12,,-RA,0.14,VWS V13.01,2013-01-31 10:35:00,
2013-01-31 05:40:00,57.3,27.7,29.01,SSE,152,10.0,17.0,32,0.13,,-RA,0.15,VWS V13.01,2013-01-31 10:40:00,
2013-01-31 05:45:00,57.2,27.6,28.99,South,190,12.0,18.0,32,0.15,,-RA,0.17,VWS V13.01,2013-01-31 10:45:00,
2013-01-31 05:50:00,57.1,27.5,28.99,South,190,9.0,18.0,32,0.17,,-RA,0.19,VWS V13.01,2013-01-31 10:50:00,
2013-01-31 05:55:00,57.2,27.6,28.99,SSE,153,6.0,18.0,32,0.18,,-RA,0.20,VWS V13.01,2013-01-31 10:55:00,
2013-01-31 06:00:00,57.3,27.7,28.98,SSW,194,9.0,18.0,32,0.21,,-RA,0.23,VWS V13.01,2013-01-31 11:00:00,
2013-01-31 06:05:00,57.2,27.6,28.98,SSW,194,5.0,24.0,32,0.23,,-RA,0.26,VWS V13.01,2013-01-31 11:05:00,
2013-01-31 06:10:00,57.2,27.6,28.98,West,270,6.0,24.0,32,0.24,,-RA,0.27,VWS V13.01,2013-01-31 11:10:00,
2013-01-31 06:15:00,57.2,27.6,28.99,SSW,198,10.0,24.0,32,0.26,,-RA,0.29,VWS V13.01,2013-01-31 11:15:00,
2013-01-31 06:20:00,57.2,27.6,28.99,SSW,205,12.0,24.0,32,0.27,,-RA,0.30,VWS V13.01,2013-01-31 11:20:00,
2013-01-31 06:25:00,57.5,27.9,29.00,WNW,287,12.0,24.0,32,0.29,,-RA,0.32,VWS V13.01,2013-01-31 11:25:00,
2013-01-31 06:30:00,57.7,28.1,29.00,SSW,211,9.0,25.0,32,0.30,,-RA,0.34,VWS V13.01,2013-01-31 11:30:00,
2013-01-31 06:35:00,58.1,27.6,29.01,South,188,6.0,24.0,31,0.23,,-RA,0.34,VWS V13.01,2013-01-31 11:35:00,
2013-01-31 06:40:00,58.3,27.8,29.01,West,270,13.0,24.0,31,0.24,,-RA,0.35,VWS V13.01,2013-01-31 11:40:00,
2013-01-31 06:45:00,58.4,28.7,29.01,WSW,257,14.0,24.0,32,0.25,,RA,0.36,VWS V13.01,2013-01-31 11:45:00,
2013-01-31 06:50:00,58.4,27.9,29.02,South,186,9.0,26.0,31,0.26,,RA,0.37,VWS V13.01,2013-01-31 11:50:00,
2013-01-31 06:55:00,58.1,28.4,29.01,SW,220,10.0,26.0,32,0.27,,RA,0.38,VWS V13.01,2013-01-31 11:55:00,
2013-01-31 07:00:00,57.8,28.9,29.01,WSW,238,7.0,26.0,33,0.28,,RA,0.39,VWS V13.01,2013-01-31 12:00:00,
2013-01-31 07:05:00,57.7,29.5,29.00,SSW,192,6.0,19.0,34,0.15,,RA,0.39,VWS V13.01,2013-01-31 12:05:00,
2013-01-31 07:10:00,57.6,30.2,29.01,SW,236,9.0,19.0,35,0.15,,RA,0.39,VWS V13.01,2013-01-31 12:10:00,
2013-01-31 07:15:00,57.4,30.7,29.00,SW,234,3.0,19.0,36,0.16,,RA,0.40,VWS V13.01,2013-01-31 12:15:00,
2013-01-31 07:20:00,57.3,30.6,29.00,SSW,213,4.0,19.0,36,0.16,,RA,0.40,VWS V13.01,2013-01-31 12:20:00,
2013-01-31 07:25:00,57.2,30.5,28.98,SW,225,4.0,19.0,36,0.16,,RA,0.40,VWS V13.01,2013-01-31 12:25:00,
2013-01-31 07:30:00,57.0,30.3,28.97,South,188,3.0,19.0,36,0.16,,RA,0.40,VWS V13.01,2013-01-31 12:30:00,
2013-01-31 07:35:00,56.7,29.4,28.96,SSW,195,1.0,7.0,35,0.07,,RA,0.41,VWS V13.01,2013-01-31 12:35:00,
2013-01-31 07:40:00,56.5,29.2,28.96,SSW,194,9.0,10.0,35,0.07,,RA,0.41,VWS V13.01,2013-01-31 12:40:00,
2013-01-31 07:45:00,56.3,29.0,28.97,SSE,167,5.0,10.0,35,0.07,,-RA,0.41,VWS V13.01,2013-01-31 12:45:00,
2013-01-31 07:50:00,56.3,29.0,28.94,SSW,212,5.0,14.0,35,0.07,,-RA,0.41,VWS V13.01,2013-01-31 12:50:00,
2013-01-31 07:55:00,56.4,29.1,28.96,WSW,247,5.0,14.0,35,0.07,,-RA,0.41,VWS V13.01,2013-01-31 12:55:00,
2013-01-31 08:00:00,56.4,29.8,28.95,SSW,196,4.0,14.0,36,0.07,,-RA,0.41,VWS V13.01,2013-01-31 13:00:00,
2013-01-31 08:05:00,56.4,29.8,28.96,SW,215,6.0,14.0,36,0.02,,-RA,0.41,VWS V13.01,2013-01-31 13:05:00,
2013-01-31 08:10:00,56.4,30.5,28.96,SSE,165,4.0,14.0,37,0.02,,-RA,0.41,VWS V13.01,2013-01-31 13:10:00,
2013-01-31 08:15:00,56.4,30.5,28.95,SW,219,4.0,14.0,37,0.02,,-RA,0.41,VWS V13.01,2013-01-31 13:15:00,
2013-01-31 08:20:00,56.5,30.6,28.95,SSW,205,3.0,14.0,37,0.02,,-RA,0.41,VWS V13.01,2013-01-31 13:20:00,
2013-01-31 08:25:00,56.4,31.1,28.95,South,171,4.0,15.0,38,0.02,,-RA,0.41,VWS V13.01,2013-01-31 13:25:00,
2013-01-31 08:30:00,56.3,31.0,28.94,SSW,195,5.0,15.0,38,0.02,,-RA,0.41,VWS V13.01,2013-01-31 13:30:00,
2013-01-31 08:35:00,56.4,31.1,28.93,West,281,4.0,14.0,38,0.01,,-RA,0.41,VWS V13.01,2013-01-31 13:35:00,
2013-01-31 08:40:00,56.4,31.8,28.93,South,174,10.0,19.0,39,0.01,,-RA,0.41,VWS V13.01,2013-01-31 13:40:00,
2013-01-31 08:45:00,56.8,33.4,28.94,SW,223,13.0,19.0,41,0.01,,OVC080,0.41,VWS V13.01,2013-01-31 13:45:00,
2013-01-31 08:50:00,57.0,34.8,28.94,West,269,6.0,19.0,43,0.01,,OVC080,0.41,VWS V13.01,2013-01-31 13:50:00,
2013-01-31 08:55:00,57.0,35.3,28.93,South,173,5.0,19.0,44,0.01,,OVC080,0.41,VWS V13.01,2013-01-31 13:55:00,
2013-01-31 09:01:00,57.0,35.9,28.94,West,268,15.0,19.0,45,0.01,,OVC080,0.41,VWS V13.01,2013-01-31 14:01:00,
2013-01-31 09:06:00,56.8,36.3,28.93,SSW,201,7.0,8.0,46,0.00,,OVC080,0.41,VWS V13.01,2013-01-31 14:06:00,
2013-01-31 09:11:00,56.7,36.2,28.94,SW,214,4.0,15.0,46,0.00,,OVC080,0.41,VWS V13.01,2013-01-31 14:11:00,
2013-01-31 09:16:00,56.7,36.2,28.94,SSW,195,6.0,15.0,46,0.00,,OVC080,0.41,VWS V13.01,2013-01-31 14:16:00,
2013-01-31 09:21:00,56.7,36.2,28.93,WSW,245,7.0,17.0,46,0.00,,OVC080,0.41,VWS V13.01,2013-01-31 14:21:00,
2013-01-31 09:26:00,56.7,37.2,28.97,North,5,7.0,17.0,48,0.00,,OVC080,0.41,VWS V13.01,2013-01-31 14:26:00,
2013-01-31 09:31:00,54.4,41.2,28.99,West,265,6.0,17.0,61,0.00,,OVC080,0.41,VWS V13.01,2013-01-31 14:31:00,
2013-01-31 09:36:00,51.5,38.5,29.02,South,189,3.0,13.0,61,0.00,,OVC080,0.41,VWS V13.01,2013-01-31 14:36:00,
2013-01-31 09:41:00,49.3,35.2,29.03,West,273,0.0,13.0,58,0.00,,OVC080,0.41,VWS V13.01,2013-01-31 14:41:00,
2013-01-31 09:46:00,47.6,32.2,29.03,WNW,302,1.0,13.0,55,0.01,,OVC030,0.42,VWS V13.01,2013-01-31 14:46:00,
2013-01-31 09:51:00,45.9,30.2,29.05,West,275,5.0,21.0,54,0.01,,OVC030,0.42,VWS V13.01,2013-01-31 14:51:00,
2013-01-31 09:56:00,44.8,29.6,29.05,SW,221,3.0,21.0,55,0.01,,OVC030,0.42,VWS V13.01,2013-01-31 14:56:00,
2013-01-31 10:01:00,44.0,28.4,29.05,West,275,4.0,4.0,54,0.01,, +RA,0.42,VWS V13.01,2013-01-31 15:01:00,
2013-01-31 10:06:00,43.6,27.6,29.06,WNW,282,8.0,9.0,53,0.02,, +RA,0.43,VWS V13.01,2013-01-31 15:06:00,
2013-01-31 10:11:00,43.2,27.2,29.05,NW,311,1.0,10.0,53,0.02,, +RA,0.43,VWS V13.01,2013-01-31 15:11:00,
2013-01-31 10:16:00,42.9,26.5,29.06,West,275,0.0,13.0,52,0.02,, +RA,0.43,VWS V13.01,2013-01-31 15:16:00,
2013-01-31 10:21:00,43.1,25.3,29.06,NNW,345,2.0,13.0,49,0.02,, +RA,0.43,VWS V13.01,2013-01-31 15:21:00,
2013-01-31 10:26:00,43.3,24.4,29.06,SW,229,0.0,13.0,47,0.02,, +RA,0.43,VWS V13.01,2013-01-31 15:26:00,
2013-01-31 10:31:00,44.0,25.6,29.07,WSW,245,1.0,3.0,48,0.02,, +RA,0.43,VWS V13.01,2013-01-31 15:31:00,
2013-01-31 10:36:00,44.5,26.5,29.08,West,267,1.0,5.0,49,0.02,, +RA,0.43,VWS V13.01,2013-01-31 15:36:00,
2013-01-31 10:41:00,44.8,29.2,29.09,WNW,296,3.0,16.0,54,0.02,, +RA,0.43,VWS V13.01,2013-01-31 15:41:00,
2013-01-31 10:46:00,45.1,29.9,29.10,West,274,5.0,16.0,55,0.02,,-RA,0.43,VWS V13.01,2013-01-31 15:46:00,
2013-01-31 10:51:00,45.0,32.0,29.10,WNW,290,4.0,16.0,60,0.03,,-RA,0.44,VWS V13.01,2013-01-31 15:51:00,
2013-01-31 10:56:00,44.8,31.8,29.10,WSW,249,1.0,16.0,60,0.03,,-RA,0.44,VWS V13.01,2013-01-31 15:56:00,
2013-01-31 11:01:00,44.8,32.2,29.11,West,279,2.0,3.0,61,0.03,,BKN080,0.44,VWS V13.01,2013-01-31 16:01:00,
2013-01-31 11:06:00,44.7,32.5,29.11,NNW,333,1.0,15.0,62,0.02,,BKN080,0.44,VWS V13.01,2013-01-31 16:06:00,
2013-01-31 11:11:00,44.5,33.1,29.12,WSW,249,6.0,16.0,64,0.02,,BKN080,0.44,VWS V13.01,2013-01-31 16:11:00,
2013-01-31 11:16:00,44.2,33.2,29.12,SW,230,5.0,17.0,65,0.02,,BKN080,0.44,VWS V13.01,2013-01-31 16:16:00,
2013-01-31 11:21:00,44.2,33.6,29.12,WSW,238,2.0,17.0,66,0.02,,BKN080,0.44,VWS V13.01,2013-01-31 16:21:00,
2013-01-31 11:26:00,44.2,33.6,29.12,NNW,338,5.0,17.0,66,0.02,,BKN080,0.44,VWS V13.01,2013-01-31 16:26:00,
2013-01-31 11:31:00,43.9,33.3,29.12,WNW,294,1.0,2.0,66,0.03,,BKN080,0.45,VWS V13.01,2013-01-31 16:31:00,
2013-01-31 11:37:00,44.2,33.6,29.12,SSW,211,3.0,20.0,66,0.02,,BKN080,0.45,VWS V13.01,2013-01-31 16:37:00,
2013-01-31 11:42:00,45.0,34.3,29.12,WNW,290,3.0,20.0,66,0.02,,BKN080,0.45,VWS V13.01,2013-01-31 16:42:00,
2013-01-31 11:47:00,44.9,34.2,29.13,West,273,4.0,20.0,66,0.02,,BKN100,0.45,VWS V13.01,2013-01-31 16:47:00,
2013-01-31 11:52:00,44.3,33.7,29.14,WNW,284,6.0,20.0,66,0.02,,BKN100,0.45,VWS V13.01,2013-01-31 16:52:00,
2013-01-31 11:57:00,44.6,33.6,29.14,WSW,252,3.0,20.0,65,0.02,,BKN100,0.45,VWS V13.01,2013-01-31 16:57:00,
2013-01-31 12:02:00,44.5,33.9,29.14,NNW,328,2.0,9.0,66,0.02,,BKN100,0.45,VWS V13.01,2013-01-31 17:02:00,
2013-01-31 12:07:00,44.2,33.2,29.14,WNW,295,0.0,13.0,65,0.01,,BKN100,0.45,VWS V13.01,2013-01-31 17:07:00,
2013-01-31 12:12:00,45.4,34.3,29.15,WNW,287,10.0,15.0,65,0.01,,BKN100,0.45,VWS V13.01,2013-01-31 17:12:00,
2013-01-31 12:17:00,46.3,35.2,29.14,NNW,327,0.0,15.0,65,0.01,,BKN100,0.45,VWS V13.01,2013-01-31 17:17:00,
2013-01-31 12:22:00,45.7,33.8,29.14,WNW,296,6.0,20.0,63,0.01,,BKN100,0.45,VWS V13.01,2013-01-31 17:22:00,
2013-01-31 12:27:00,44.4,32.2,29.15,West,267,2.0,20.0,62,0.01,,BKN100,0.45,VWS V13.01,2013-01-31 17:27:00,
2013-01-31 12:32:00,43.9,32.1,29.16,West,275,4.0,9.0,63,0.00,,BKN100,0.45,VWS V13.01,2013-01-31 17:32:00,
2013-01-31 12:37:00,44.2,32.4,29.16,West,281,6.0,13.0,63,0.00,,BKN100,0.45,VWS V13.01,2013-01-31 17:37:00,
2013-01-31 12:42:00,45.1,32.9,29.16,West,263,2.0,13.0,62,0.00,,BKN100,0.45,VWS V13.01,2013-01-31 17:42:00,
2013-01-31 12:47:00,45.2,32.2,29.16,NW,304,10.0,13.0,60,0.00,,SCT065,0.45,VWS V13.01,2013-01-31 17:47:00,
2013-01-31 12:52:00,45.0,32.8,29.16,West,265,2.0,14.0,62,0.00,,SCT065,0.45,VWS V13.01,2013-01-31 17:52:00,
2013-01-31 12:58:00,45.8,32.7,29.16,WNW,300,3.0,18.0,60,0.00,,SCT065,0.45,VWS V13.01,2013-01-31 17:58:00,
2013-01-31 13:03:00,46.3,32.3,29.16,NW,323,13.0,15.0,58,0.00,,SCT065,0.45,VWS V13.01,2013-01-31 18:03:00,
2013-01-31 13:08:00,45.5,31.6,29.16,NW,313,0.0,18.0,58,0.00,,SCT065,0.45,VWS V13.01,2013-01-31 18:08:00,
2013-01-31 13:13:00,44.7,30.9,29.17,NW,309,2.0,18.0,58,0.00,,SCT065,0.45,VWS V13.01,2013-01-31 18:13:00,
2013-01-31 13:18:00,44.0,30.6,29.17,West,273,2.0,18.0,59,0.00,,SCT065,0.45,VWS V13.01,2013-01-31 18:18:00,
2013-01-31 13:23:00,44.0,30.2,29.18,West,278,2.0,18.0,58,0.00,,SCT065,0.45,VWS V13.01,2013-01-31 18:23:00,
2013-01-31 13:28:00,44.7,31.3,29.18,West,277,6.0,18.0,59,0.00,,SCT065,0.45,VWS V13.01,2013-01-31 18:28:00,
2013-01-31 13:33:00,44.9,28.4,29.18,WSW,243,10.0,22.0,52,0.01,,SCT065,0.46,VWS V13.01,2013-01-31 18:33:00,
2013-01-31 13:38:00,45.1,27.6,29.19,SW,232,12.0,22.0,50,0.01,,SCT065,0.46,VWS V13.01,2013-01-31 18:38:00,
2013-01-31 13:43:00,44.7,26.2,29.19,West,276,2.0,22.0,48,0.01,,SCT065,0.46,VWS V13.01,2013-01-31 18:43:00,
2013-01-31 13:48:00,44.3,26.4,29.20,NW,309,4.0,22.0,49,0.01,,BKN049,0.46,VWS V13.01,2013-01-31 18:48:00,
2013-01-31 13:53:00,43.8,25.4,29.21,West,269,8.0,22.0,48,0.01,,BKN049,0.46,VWS V13.01,2013-01-31 18:53:00,
2013-01-31 13:58:00,43.7,25.3,29.21,NNW,330,2.0,22.0,48,0.01,,BKN049,0.46,VWS V13.01,2013-01-31 18:58:00,
2013-01-31 14:03:00,44.1,25.2,29.21,NW,313,2.0,12.0,47,0.01,,BKN049,0.46,VWS V13.01,2013-01-31 19:03:00,
2013-01-31 14:08:00,44.3,25.4,29.22,West,276,5.0,12.0,47,0.01,,BKN049,0.46,VWS V13.01,2013-01-31 19:08:00,
2013-01-31 14:13:00,44.2,25.8,29.22,West,271,6.0,15.0,48,0.01,,BKN049,0.46,VWS V13.01,2013-01-31 19:13:00,
2013-01-31 14:18:00,43.8,25.9,29.22,West,263,4.0,15.0,49,0.01,,BKN049,0.46,VWS V13.01,2013-01-31 19:18:00,
2013-01-31 14:23:00,43.5,25.1,29.22,North,5,5.0,15.0,48,0.01,,BKN049,0.46,VWS V13.01,2013-01-31 19:23:00,
2013-01-31 14:28:00,43.6,24.7,29.23,SW,232,19.0,19.0,47,0.01,,BKN049,0.46,VWS V13.01,2013-01-31 19:28:00,
2013-01-31 14:33:00,43.1,24.8,29.23,West,275,5.0,14.0,48,0.00,,BKN049,0.46,VWS V13.01,2013-01-31 19:33:00,
2013-01-31 14:38:00,42.7,23.9,29.24,West,269,9.0,14.0,47,0.00,,BKN049,0.46,VWS V13.01,2013-01-31 19:38:00,
2013-01-31 14:43:00,42.2,23.4,29.25,West,262,3.0,14.0,47,0.00,,BKN049,0.46,VWS V13.01,2013-01-31 19:43:00,
2013-01-31 14:48:00,41.7,24.0,29.25,West,278,4.0,14.0,49,0.00,,CLR,0.46,VWS V13.01,2013-01-31 19:48:00,
2013-01-31 14:53:00,41.6,24.4,29.26,NW,304,2.0,14.0,50,0.00,,CLR,0.46,VWS V13.01,2013-01-31 19:53:00,
2013-01-31 14:58:00,41.9,24.1,29.26,West,263,1.0,14.0,49,0.00,,CLR,0.46,VWS V13.01,2013-01-31 19:58:00,
2013-01-31 15:03:00,42.0,23.8,29.26,SW,235,4.0,9.0,48,0.00,,CLR,0.46,VWS V13.01,2013-01-31 20:03:00,
2013-01-31 15:08:00,41.9,23.7,29.26,SW,224,4.0,13.0,48,0.00,,CLR,0.46,VWS V13.01,2013-01-31 20:08:00,
2013-01-31 15:13:00,41.7,23.0,29.26,West,265,7.0,13.0,47,0.00,,CLR,0.46,VWS V13.01,2013-01-31 20:13:00,
2013-01-31 15:18:00,41.4,22.7,29.27,NW,311,1.0,13.0,47,0.00,,CLR,0.46,VWS V13.01,2013-01-31 20:18:00,
2013-01-31 15:23:00,41.2,23.0,29.28,WNW,288,1.0,13.0,48,0.00,,CLR,0.46,VWS V13.01,2013-01-31 20:23:00,
2013-01-31 15:28:00,41.1,23.4,29.28,West,270,0.0,13.0,49,0.00,,CLR,0.46,VWS V13.01,2013-01-31 20:28:00,
2013-01-31 15:33:00,40.9,22.2,29.29,NNW,327,4.0,10.0,47,0.00,,CLR,0.46,VWS V13.01,2013-01-31 20:33:00,
2013-01-31 15:38:00,40.6,23.0,29.29,West,275,7.0,15.0,49,0.00,,CLR,0.46,VWS V13.01,2013-01-31 20:38:00,
2013-01-31 15:43:00,40.6,23.0,29.29,NNE,16,2.0,15.0,49,0.00,,CLR,0.46,VWS V13.01,2013-01-31 20:43:00,
2013-01-31 15:48:00,40.4,22.8,29.29,NW,313,1.0,15.0,49,0.00,,CLR,0.46,VWS V13.01,2013-01-31 20:48:00,
2013-01-31 15:53:00,40.1,23.0,29.30,WNW,284,0.0,16.0,50,0.00,,CLR,0.46,VWS V13.01,2013-01-31 20:53:00,
2013-01-31 15:58:00,39.8,22.7,29.30,WNW,300,1.0,16.0,50,0.00,,CLR,0.46,VWS V13.01,2013-01-31 20:58:00,
2013-01-31 16:03:00,39.5,21.9,29.30,West,277,5.0,6.0,49,0.00,,SCT060,0.46,VWS V13.01,2013-01-31 21:03:00,
2013-01-31 16:08:00,39.3,22.2,29.31,WSW,254,3.0,9.0,50,0.00,,SCT060,0.46,VWS V13.01,2013-01-31 21:08:00,
2013-01-31 16:13:00,39.2,21.7,29.31,WNW,284,3.0,10.0,49,0.00,,SCT060,0.46,VWS V13.01,2013-01-31 21:13:00,
2013-01-31 16:19:00,39.2,20.7,29.31,WNW,286,0.0,14.0,47,0.00,,SCT060,0.46,VWS V13.01,2013-01-31 21:19:00,
2013-01-31 16:24:00,39.1,22.0,29.32,NW,313,4.0,14.0,50,0.00,,SCT060,0.46,VWS V13.01,2013-01-31 21:24:00,
2013-01-31 16:29:00,38.9,21.4,29.32,WNW,286,0.0,14.0,49,0.00,,SCT060,0.46,VWS V13.01,2013-01-31 21:29:00,
2013-01-31 16:34:00,38.8,21.8,29.32,West,276,1.0,8.0,50,0.00,,SCT060,0.46,VWS V13.01,2013-01-31 21:34:00,
2013-01-31 16:39:00,38.7,21.7,29.32,WSW,252,6.0,9.0,50,0.00,,SCT060,0.46,VWS V13.01,2013-01-31 21:39:00,
2013-01-31 16:44:00,38.6,20.6,29.33,West,268,3.0,13.0,48,0.00,,SCT060,0.46,VWS V13.01,2013-01-31 21:44:00,
2013-01-31 16:49:00,38.6,21.1,29.33,WSW,257,4.0,13.0,49,0.00,,BKN070,0.46,VWS V13.01,2013-01-31 21:49:00,
2013-01-31 16:54:00,38.4,21.4,29.33,WNW,289,0.0,13.0,50,0.00,,BKN070,0.46,VWS V13.01,2013-01-31 21:54:00,
2013-01-31 16:59:00,38.1,21.6,29.34,West,271,0.0,13.0,51,0.00,,BKN070,0.46,VWS V13.01,2013-01-31 21:59:00,
2013-01-31 17:04:00,37.7,22.1,29.34,West,266,4.0,4.0,53,0.00,,BKN070,0.46,VWS V13.01,2013-01-31 22:04:00,
2013-01-31 17:09:00,37.5,21.9,29.34,NW,319,0.0,9.0,53,0.00,,BKN070,0.46,VWS V13.01,2013-01-31 22:09:00,
2013-01-31 17:14:00,37.3,21.8,29.35,NW,311,0.0,9.0,53,0.00,,BKN070,0.46,VWS V13.01,2013-01-31 22:14:00,
2013-01-31 17:19:00,37.1,22.0,29.35,West,275,3.0,9.0,54,0.00,,BKN070,0.46,VWS V13.01,2013-01-31 22:19:00,
2013-01-31 17:24:00,36.9,21.8,29.35,West,281,2.0,10.0,54,0.00,,BKN070,0.46,VWS V13.01,2013-01-31 22:24:00,
2013-01-31 17:29:00,36.7,21.6,29.36,NNW,336,5.0,12.0,54,0.00,,BKN070,0.46,VWS V13.01,2013-01-31 22:29:00,
2013-01-31 17:34:00,36.6,20.6,29.36,WSW,238,2.0,9.0,52,0.00,,BKN070,0.46,VWS V13.01,2013-01-31 22:34:00,
2013-01-31 17:39:00,36.6,20.6,29.37,WNW,302,1.0,9.0,52,0.00,,BKN070,0.46,VWS V13.01,2013-01-31 22:39:00,
2013-01-31 17:44:00,36.5,20.6,29.37,WNW,301,1.0,9.0,52,0.00,,BKN070,0.46,VWS V13.01,2013-01-31 22:44:00,
2013-01-31 17:49:00,36.4,20.5,29.38,NW,304,1.0,13.0,52,0.00,,SCT080,0.46,VWS V13.01,2013-01-31 22:49:00,
2013-01-31 17:54:00,36.3,20.8,29.38,West,281,1.0,13.0,53,0.00,,SCT080,0.46,VWS V13.01,2013-01-31 22:54:00,
2013-01-31 17:59:00,36.1,20.6,29.39,WNW,303,0.0,13.0,53,0.00,,SCT080,0.46,VWS V13.01,2013-01-31 22:59:00,
2013-01-31 18:04:00,36.0,21.0,29.39,NNW,329,0.0,2.0,54,0.00,,SCT080,0.46,VWS V13.01,2013-01-31 23:04:00,
2013-01-31 18:09:00,35.8,21.2,29.39,West,277,3.0,12.0,55,0.00,,SCT080,0.46,VWS V13.01,2013-01-31 23:09:00,
2013-01-31 18:14:00,35.6,21.0,29.39,West,273,4.0,12.0,55,0.00,,SCT080,0.46,VWS V13.01,2013-01-31 23:14:00,
2013-01-31 18:22:00,35.3,21.2,29.40,West,267,0.0,2.0,56,0.00,,,0.46,VWS V13.01,2013-01-31 23:22:00,
2013-01-31 18:27:00,35.1,21.0,29.40,NNW,333,2.0,5.0,56,0.00,,,0.46,VWS V13.01,2013-01-31 23:27:00,
2013-01-31 18:32:00,34.9,20.8,29.41,WSW,238,0.0,6.0,56,0.00,,SCT080,0.46,VWS V13.01,2013-01-31 23:32:00,
2013-01-31 18:37:00,34.9,20.4,29.42,WNW,286,1.0,13.0,55,0.00,,SCT080,0.46,VWS V13.01,2013-01-31 23:37:00,
2013-01-31 18:42:00,35.0,20.5,29.42,WNW,288,1.0,13.0,55,0.00,,SCT080,0.46,VWS V13.01,2013-01-31 23:42:00,
2013-01-31 18:47:00,34.9,20.4,29.42,WNW,301,2.0,13.0,55,0.00,,CLR,0.46,VWS V13.01,2013-01-31 23:47:00,
2013-01-31 18:52:00,34.6,21.0,29.43,West,281,11.0,13.0,57,0.00,,CLR,0.46,VWS V13.01,2013-01-31 23:52:00,
2013-01-31 18:57:00,34.4,21.2,29.43,West,275,4.0,13.0,58,0.00,,CLR,0.46,VWS V13.01,2013-01-31 23:57:00,
2013-01-31 19:02:00,34.4,20.8,29.43,NW,309,0.0,4.0,57,0.00,,CLR,0.46,VWS V13.01,2013-02-01 00:02:00,
2013-01-31 19:07:00,34.1,20.5,29.43,SSW,198,0.0,6.0,57,0.00,,CLR,0.46,VWS V13.01,2013-02-01 00:07:00,
2013-01-31 19:12:00,33.9,21.1,29.43,WNW,288,2.0,7.0,59,0.00,,CLR,0.46,VWS V13.01,2013-02-01 00:12:00,
2013-01-31 19:17:00,33.6,21.2,29.43,West,276,0.0,7.0,60,0.00,,CLR,0.46,VWS V13.01,2013-02-01 00:17:00,
2013-01-31 19:22:00,33.4,21.0,29.44,WNW,288,0.0,7.0,60,0.00,,CLR,0.46,VWS V13.01,2013-02-01 00:22:00,
2013-01-31 19:27:00,33.2,20.8,29.44,West,279,2.0,7.0,60,0.00,,CLR,0.46,VWS V13.01,2013-02-01 00:27:00,
2013-01-31 19:32:00,32.9,20.9,29.44,WSW,253,8.0,10.0,61,0.00,,CLR,0.46,VWS V13.01,2013-02-01 00:32:00,
2013-01-31 19:37:00,32.9,19.8,29.45,West,275,2.0,10.0,58,0.00,,CLR,0.46,VWS V13.01,2013-02-01 00:37:00,
2013-01-31 19:42:00,33.2,18.8,29.45,North,355,5.0,10.0,55,0.00,,CLR,0.46,VWS V13.01,2013-02-01 00:42:00,
2013-01-31 19:47:00,33.4,19.0,29.45,WNW,284,1.0,10.0,55,0.00,,CLR,0.46,VWS V13.01,2013-02-01 00:47:00,
2013-01-31 19:52:00,33.3,19.3,29.46,NE,36,1.0,10.0,56,0.00,,CLR,0.46,VWS V13.01,2013-02-01 00:52:00,
2013-01-31 19:57:00,33.2,19.6,29.47,WNW,302,4.0,17.0,57,0.00,,CLR,0.46,VWS V13.01,2013-02-01 00:57:00,
2013-01-31 20:02:00,32.9,20.5,29.47,WNW,288,1.0,3.0,60,0.00,,CLR,0.46,VWS V13.01,2013-02-01 01:02:00,
2013-01-31 20:07:00,32.6,21.0,29.47,WNW,300,0.0,6.0,62,0.00,,CLR,0.46,VWS V13.01,2013-02-01 01:07:00,
2013-01-31 20:12:00,32.3,21.1,29.47,West,265,3.0,14.0,63,0.00,,CLR,0.46,VWS V13.01,2013-02-01 01:12:00,
2013-01-31 20:17:00,32.0,20.5,29.48,WSW,251,3.0,14.0,62,0.00,,CLR,0.46,VWS V13.01,2013-02-01 01:17:00,
2013-01-31 20:22:00,31.9,20.0,29.48,WNW,302,0.0,14.0,61,0.00,,CLR,0.46,VWS V13.01,2013-02-01 01:22:00,
2013-01-31 20:27:00,31.9,19.6,29.48,ENE,71,3.0,15.0,60,0.00,,CLR,0.46,VWS V13.01,2013-02-01 01:27:00,
2013-01-31 20:32:00,31.9,19.6,29.48,NW,326,4.0,6.0,60,0.00,,CLR,0.46,VWS V13.01,2013-02-01 01:32:00,
2013-01-31 20:37:00,31.8,19.1,29.49,WNW,287,1.0,14.0,59,0.00,,CLR,0.46,VWS V13.01,2013-02-01 01:37:00,
2013-01-31 20:42:00,31.7,19.4,29.49,WNW,294,0.0,14.0,60,0.00,,CLR,0.46,VWS V13.01,2013-02-01 01:42:00,
2013-01-31 20:47:00,31.5,19.6,29.49,WNW,290,2.0,14.0,61,0.00,,CLR,0.46,VWS V13.01,2013-02-01 01:47:00,
2013-01-31 20:52:00,31.4,19.5,29.49,West,269,0.0,14.0,61,0.00,,CLR,0.46,VWS V13.01,2013-02-01 01:52:00,
2013-01-31 20:57:00,31.2,19.3,29.49,West,277,2.0,14.0,61,0.00,,CLR,0.46,VWS V13.01,2013-02-01 01:57:00,
2013-01-31 21:02:00,31.1,19.2,29.50,WNW,285,1.0,5.0,61,0.00,,CLR,0.46,VWS V13.01,2013-02-01 02:02:00,
2013-01-31 21:07:00,31.0,19.1,29.50,West,274,0.0,5.0,61,0.00,,CLR,0.46,VWS V13.01,2013-02-01 02:07:00,
2013-01-31 21:12:00,31.0,19.1,29.50,SSW,194,3.0,6.0,61,0.00,,CLR,0.46,VWS V13.01,2013-02-01 02:12:00,
2013-01-31 21:18:00,30.9,19.0,29.50,West,276,0.0,6.0,61,0.00,,CLR,0.46,VWS V13.01,2013-02-01 02:18:00,
2013-01-31 21:23:00,30.8,18.6,29.50,WSW,252,1.0,6.0,60,0.00,,CLR,0.46,VWS V13.01,2013-02-01 02:23:00,
2013-01-31 21:28:00,30.9,17.9,29.50,West,276,1.0,6.0,58,0.00,,CLR,0.46,VWS V13.01,2013-02-01 02:28:00,
2013-01-31 21:33:00,30.9,18.3,29.51,West,272,0.0,2.0,59,0.00,,CLR,0.46,VWS V13.01,2013-02-01 02:33:00,
2013-01-31 21:38:00,30.8,17.8,29.51,West,277,1.0,10.0,58,0.00,,CLR,0.46,VWS V13.01,2013-02-01 02:38:00,
2013-01-31 21:43:00,30.8,17.4,29.51,WNW,283,0.0,10.0,57,0.00,,CLR,0.46,VWS V13.01,2013-02-01 02:43:00,
2013-01-31 21:48:00,30.9,16.6,29.51,NW,316,1.0,10.0,55,0.00,,CLR,0.46,VWS V13.01,2013-02-01 02:48:00,
2013-01-31 21:53:00,30.9,16.6,29.52,NNE,30,0.0,10.0,55,0.00,,CLR,0.46,VWS V13.01,2013-02-01 02:53:00,
2013-01-31 21:58:00,30.9,16.2,29.52,NW,316,6.0,10.0,54,0.00,,CLR,0.46,VWS V13.01,2013-02-01 02:58:00,
2013-01-31 22:03:00,30.8,16.5,29.52,North,355,1.0,5.0,55,0.00,,CLR,0.46,VWS V13.01,2013-02-01 03:03:00,
2013-01-31 22:08:00,30.5,17.9,29.52,West,269,0.0,10.0,59,0.00,,CLR,0.46,VWS V13.01,2013-02-01 03:08:00,
2013-01-31 22:13:00,30.2,18.4,29.52,NW,304,0.0,10.0,61,0.00,,CLR,0.46,VWS V13.01,2013-02-01 03:13:00,
2013-01-31 22:18:00,29.9,18.9,29.53,WNW,292,2.0,10.0,63,0.00,,CLR,0.46,VWS V13.01,2013-02-01 03:18:00,
2013-01-31 22:23:00,29.7,18.7,29.53,WNW,292,0.0,10.0,63,0.00,,CLR,0.46,VWS V13.01,2013-02-01 03:23:00,
2013-01-31 22:28:00,29.5,18.8,29.53,WSW,248,0.0,10.0,64,0.00,,CLR,0.46,VWS V13.01,2013-02-01 03:28:00,
2013-01-31 22:33:00,29.4,18.7,29.53,West,274,1.0,5.0,64,0.00,,CLR,0.46,VWS V13.01,2013-02-01 03:33:00,
2013-01-31 22:38:00,29.3,18.6,29.53,West,275,4.0,11.0,64,0.00,,CLR,0.46,VWS V13.01,2013-02-01 03:38:00,
2013-01-31 22:43:00,29.2,18.5,29.54,WNW,292,0.0,13.0,64,0.00,,CLR,0.46,VWS V13.01,2013-02-01 03:43:00,
2013-01-31 22:48:00,29.0,18.7,29.54,NW,315,3.0,13.0,65,0.00,,BKN080,0.46,VWS V13.01,2013-02-01 03:48:00,
2013-01-31 22:53:00,28.9,18.6,29.55,WNW,290,0.0,13.0,65,0.00,,BKN080,0.46,VWS V13.01,2013-02-01 03:53:00,
2013-01-31 22:59:00,28.8,18.5,29.54,WSW,250,0.0,13.0,65,0.00,,BKN080,0.46,VWS V13.01,2013-02-01 03:59:00,
2013-01-31 23:04:00,28.8,18.5,29.54,West,279,1.0,5.0,65,0.00,,BKN080,0.46,VWS V13.01,2013-02-01 04:04:00,
2013-01-31 23:09:00,28.7,18.1,29.54,WNW,299,0.0,5.0,64,0.00,,BKN080,0.46,VWS V13.01,2013-02-01 04:09:00,
2013-01-31 23:14:00,28.6,18.3,29.55,NNW,330,3.0,11.0,65,0.00,,BKN080,0.46,VWS V13.01,2013-02-01 04:14:00,
2013-01-31 23:19:00,28.6,18.3,29.55,WNW,285,0.0,11.0,65,0.00,,BKN080,0.46,VWS V13.01,2013-02-01 04:19:00,
2013-01-31 23:24:00,28.5,18.2,29.55,WNW,288,0.0,16.0,65,0.00,,BKN080,0.46,VWS V13.01,2013-02-01 04:24:00,
2013-01-31 23:29:00,28.4,18.1,29.55,WNW,288,1.0,16.0,65,0.00,,BKN080,0.46,VWS V13.01,2013-02-01 04:29:00,
2013-01-31 23:34:00,28.2,18.3,29.55,WNW,299,1.0,5.0,66,0.00,,BKN080,0.46,VWS V13.01,2013-02-01 04:34:00,
2013-01-31 23:39:00,28.1,18.2,29.55,West,281,0.0,5.0,66,0.00,,BKN080,0.46,VWS V13.01,2013-02-01 04:39:00,
2013-01-31 23:44:00,28.1,18.2,29.55,WNW,282,2.0,5.0,66,0.00,,BKN080,0.46,VWS V13.01,2013-02-01 04:44:00,
2013-01-31 23:49:00,28.0,18.1,29.55,West,267,0.0,5.0,66,0.00,,BKN050,0.46,VWS V13.01,2013-02-01 04:49:00,
2013-01-31 23:54:00,28.0,18.1,29.55,WNW,283,0.0,6.0,66,0.00,,BKN050,0.46,VWS V13.01,2013-02-01 04:54:00,
2013-01-31 23:59:00,27.9,18.0,29.55,WSW,250,0.0,6.0,66,0.00,,BKN050,0.46,VWS V13.01,2013-02-01 04:59:00,